Time;durP1;ratioP1;P1;durP2;ratioP2;P2;SDS_P1;SDS_P2;PMS_P1;PMS_P2;Temp;Humidity;BMP_temperature;BMP_pressure;BME280_temperature;BME280_humidity;BME280_pressure;Samples;Min_cycle;Max_cycle;Signal;HPM_P1;HPM_P2
2022/02/03 00:00:49;;;;;;;7.15;5.10;;;;;;;;;;5036096;28;20026;-59
2022/02/03 00:03:23;;;;;;;7.10;4.60;;;;;;;;;;5032690;28;20418;-59
2022/02/03 00:05:53;;;;;;;6.53;4.53;;;;;;;;;;5028232;28;20075;-60
2022/02/03 00:08:53;;;;;;;7.20;4.53;;;;;;;;;;5034850;28;20026;-60
2022/02/03 00:22:49;;;;;;;7.75;5.10;;;;;;;;;;5034035;28;20030;-60
2022/02/03 00:30:20;;;;;;;8.60;5.03;;;;;;;;;;5032204;28;20032;-60
2022/02/03 00:33:06;;;;;;;10.63;5.20;;;;;;;;;;5030051;28;20028;-60
2022/02/03 00:49:12;;;;;;;6.05;4.80;;;;;;;;;;5032821;28;20479;-60
2022/02/03 00:51:43;;;;;;;6.82;4.75;;;;;;;;;;5034549;28;20138;-60
2022/02/03 00:54:10;;;;;;;6.15;4.90;;;;;;;;;;5038198;28;20548;-60
2022/02/03 00:56:38;;;;;;;10.95;5.40;;;;;;;;;;5030450;28;20112;-61
2022/02/03 00:59:13;;;;;;;8.30;4.95;;;;;;;;;;5034975;28;20025;-60
2022/02/03 01:01:49;;;;;;;7.65;4.97;;;;;;;;;;5035451;28;20106;-61
2022/02/03 01:04:15;;;;;;;7.45;5.13;;;;;;;;;;5032319;28;20029;-60
2022/02/03 01:06:52;;;;;;;7.15;4.60;;;;;;;;;;5032696;28;20396;-59
2022/02/03 01:09:22;;;;;;;5.95;4.13;;;;;;;;;;5028780;28;20030;-59
2022/02/03 01:11:50;;;;;;;8.82;5.25;;;;;;;;;;5024764;28;20136;-60
2022/02/03 01:14:26;;;;;;;7.05;4.45;;;;;;;;;;5027945;28;20021;-59
2022/02/03 01:37:14;;;;;;;7.60;4.70;;;;;;;;;;5029688;28;20049;-59
2022/02/03 01:45:26;;;;;;;7.97;5.28;;;;;;;;;;5032957;28;20044;-59
2022/02/03 01:53:28;;;;;;;7.70;5.07;;;;;;;;;;5035248;28;20040;-59
2022/02/03 01:56:03;;;;;;;9.02;5.55;;;;;;;;;;5037232;28;20029;-60
2022/02/03 01:58:49;;;;;;;6.63;4.35;;;;;;;;;;5033477;28;20044;-60
2022/02/03 02:01:25;;;;;;;7.75;4.80;;;;;;;;;;5032320;28;20112;-60
2022/02/03 02:03:56;;;;;;;6.90;4.43;;;;;;;;;;5035185;28;20029;-60
2022/02/03 02:06:51;;;;;;;8.32;5.03;;;;;;;;;;5030068;28;20029;-60
2022/02/03 02:09:19;;;;;;;8.23;4.90;;;;;;;;;;5038105;28;20037;-59
2022/02/03 02:37:37;;;;;;;7.07;4.72;;;;;;;;;;5034478;28;20507;-60
2022/02/03 02:40:41;;;;;;;8.82;4.22;;;;;;;;;;5030365;28;20041;-60
2022/02/03 02:43:10;;;;;;;5.50;3.92;;;;;;;;;;5032769;28;20076;-60
2022/02/03 02:45:45;;;;;;;6.00;3.65;;;;;;;;;;5030436;28;20544;-60
2022/02/03 02:48:10;;;;;;;5.65;3.45;;;;;;;;;;5028243;28;20507;-60
2022/02/03 02:50:50;;;;;;;6.13;3.92;;;;;;;;;;5036411;28;20033;-60
2022/02/03 02:53:59;;;;;;;4.07;3.15;;;;;;;;;;5030267;28;20029;-60
2022/02/03 02:56:38;;;;;;;6.03;3.80;;;;;;;;;;5030378;28;20049;-60
2022/02/03 03:37:15;;;;;;;6.13;4.13;;;;;;;;;;5031293;28;20298;-59
2022/02/03 03:39:47;;;;;;;5.88;3.78;;;;;;;;;;5027625;28;20035;-60
2022/02/03 03:42:14;;;;;;;8.50;3.83;;;;;;;;;;5034340;28;20291;-60
2022/02/03 03:44:42;;;;;;;4.63;3.25;;;;;;;;;;5026898;28;20467;-60
2022/02/03 03:47:13;;;;;;;6.40;3.88;;;;;;;;;;5028869;28;20025;-59
2022/02/03 03:49:46;;;;;;;5.32;3.70;;;;;;;;;;5035286;28;20026;-59
2022/02/03 03:52:21;;;;;;;8.68;3.83;;;;;;;;;;5032491;28;20027;-60
2022/02/03 03:55:17;;;;;;;5.65;3.72;;;;;;;;;;5036367;28;20063;-61
2022/02/03 04:55:59;;;;;;;9.98;5.60;;;;;;;;;;5028450;28;20416;-59
2022/02/03 05:04:40;;;;;;;9.85;4.97;;;;;;;;;;5030850;28;20052;-60
2022/02/03 05:10:56;;;;;;;5.85;3.83;;;;;;;;;;5037089;28;20199;-60
2022/02/03 05:14:52;;;;;;;5.63;3.90;;;;;;;;;;5026403;28;20456;-61
2022/02/03 05:43:44;;;;;;;7.65;4.40;;;;;;;;;;5039855;28;20039;-60
2022/02/03 05:46:39;;;;;;;9.13;3.42;;;;;;;;;;5036341;28;20072;-59
2022/02/03 05:52:03;;;;;;;;;;;;;;;;;;;;;
2022/02/03 06:02:51;;;;;;;3.55;3.00;;;;;;;;;;5047413;28;20076;-59
2022/02/03 06:05:44;;;;;;;9.20;4.68;;;;;;;;;;5038921;28;20488;-59
2022/02/03 06:14:02;;;;;;;3.78;2.75;;;;;;;;;;5029199;28;20042;-60
2022/02/03 06:27:28;;;;;;;8.45;3.88;;;;;;;;;;5028323;28;20036;-60
2022/02/03 06:29:56;;;;;;;7.53;4.43;;;;;;;;;;5033646;28;20155;-60
2022/02/03 06:32:25;;;;;;;6.68;4.30;;;;;;;;;;5029121;28;20033;-60
2022/02/03 06:34:51;;;;;;;5.83;3.53;;;;;;;;;;5031992;28;20026;-60
2022/02/03 06:37:19;;;;;;;5.00;2.92;;;;;;;;;;5032220;28;20036;-60
2022/02/03 06:39:44;;;;;;;7.45;4.85;;;;;;;;;;5032689;28;20072;-60
2022/02/03 06:42:10;;;;;;;8.90;4.47;;;;;;;;;;5034726;28;20028;-60
2022/02/03 06:44:41;;;;;;;6.22;3.70;;;;;;;;;;5034767;28;20029;-60
2022/02/03 06:47:25;;;;;;;5.07;3.22;;;;;;;;;;5032243;28;20116;-60
2022/02/03 06:57:17;;;;;;;7.05;4.75;;;;;;;;;;5031710;28;20044;-60
2022/02/03 06:59:52;;;;;;;7.50;4.68;;;;;;;;;;5037974;28;20031;-59
2022/02/03 07:02:19;;;;;;;8.45;5.18;;;;;;;;;;5028566;28;20076;-59
2022/02/03 07:04:45;;;;;;;6.35;3.67;;;;;;;;;;5031799;28;20607;-59
2022/02/03 07:07:15;;;;;;;4.88;3.45;;;;;;;;;;5030815;28;20033;-59
2022/02/03 07:09:43;;;;;;;4.25;3.08;;;;;;;;;;5034622;28;20028;-59
2022/02/03 07:12:09;;;;;;;3.45;2.83;;;;;;;;;;5039804;28;20029;-60
2022/02/03 07:14:35;;;;;;;4.80;3.45;;;;;;;;;;5031398;28;20032;-60
2022/02/03 07:17:02;;;;;;;2.88;2.58;;;;;;;;;;5038563;28;20082;-60
2022/02/03 07:19:28;;;;;;;5.65;3.58;;;;;;;;;;5028212;28;20033;-60
2022/02/03 07:21:54;;;;;;;4.68;3.10;;;;;;;;;;5027725;28;20036;-60
2022/02/03 07:24:19;;;;;;;4.05;3.00;;;;;;;;;;5030218;28;20044;-59
2022/02/03 07:26:44;;;;;;;4.22;3.30;;;;;;;;;;5030367;28;20041;-59
2022/02/03 07:29:11;;;;;;;4.05;3.17;;;;;;;;;;5034211;28;20029;-59
2022/02/03 07:31:36;;;;;;;4.80;2.92;;;;;;;;;;5032385;28;20029;-60
2022/02/03 07:34:09;;;;;;;3.60;2.70;;;;;;;;;;5032851;28;20819;-60
2022/02/03 07:36:36;;;;;;;3.75;2.88;;;;;;;;;;5028804;28;20065;-60
2022/02/03 07:39:03;;;;;;;4.03;2.92;;;;;;;;;;5030480;28;22315;-60
2022/02/03 07:41:28;;;;;;;3.90;3.10;;;;;;;;;;5029906;28;20119;-60
2022/02/03 07:43:54;;;;;;;3.80;2.92;;;;;;;;;;5033889;28;20276;-60
2022/02/03 07:46:19;;;;;;;3.58;2.60;;;;;;;;;;5029883;28;20045;-60
2022/02/03 07:48:45;;;;;;;6.10;2.88;;;;;;;;;;5029807;28;20096;-62
2022/02/03 07:51:10;;;;;;;4.15;3.17;;;;;;;;;;5039231;28;20036;-59
2022/02/03 07:53:35;;;;;;;4.20;3.20;;;;;;;;;;5032581;28;20694;-59
2022/02/03 07:56:01;;;;;;;3.08;2.60;;;;;;;;;;5034460;28;20036;-59
2022/02/03 07:58:26;;;;;;;4.18;2.78;;;;;;;;;;5032259;28;20029;-59
2022/02/03 08:00:52;;;;;;;2.78;2.58;;;;;;;;;;5033715;28;20029;-60
2022/02/03 08:03:17;;;;;;;3.00;2.70;;;;;;;;;;5033477;28;20508;-59
2022/02/03 08:05:48;;;;;;;3.70;2.35;;;;;;;;;;5033140;28;20083;-59
2022/02/03 08:10:50;;;;;;;2.80;1.92;;;;;;;;;;5032353;28;20557;-59
2022/02/03 08:13:22;;;;;;;2.35;2.10;;;;;;;;;;5034622;28;20037;-59
2022/02/03 08:15:54;;;;;;;2.03;1.80;;;;;;;;;;5027187;28;20039;-59
2022/02/03 08:18:21;;;;;;;2.97;1.95;;;;;;;;;;5027194;28;20040;-59
2022/02/03 08:20:54;;;;;;;2.30;2.10;;;;;;;;;;5029119;28;20545;-59
2022/02/03 08:25:56;;;;;;;4.25;2.40;;;;;;;;;;5030659;28;20017;-59
2022/02/03 08:31:01;;;;;;;5.50;1.98;;;;;;;;;;5032394;28;20041;-60
2022/02/03 08:33:27;;;;;;;2.67;1.73;;;;;;;;;;5031649;28;20029;-60
2022/02/03 08:35:52;;;;;;;2.35;1.85;;;;;;;;;;5032088;28;20514;-60
2022/02/03 08:43:14;;;;;;;3.20;2.53;;;;;;;;;;5028509;28;20074;-60
2022/02/03 08:45:41;;;;;;;7.07;3.10;;;;;;;;;;5028427;28;20580;-60
2022/02/03 08:48:07;;;;;;;4.50;3.00;;;;;;;;;;5033061;28;20476;-60
2022/02/03 08:50:34;;;;;;;3.95;3.28;;;;;;;;;;5034816;28;20117;-60
2022/02/03 08:53:09;;;;;;;3.58;2.70;;;;;;;;;;5030990;28;20030;-60
2022/02/03 09:52:15;;;;;;;2.75;2.42;;;;;;;;;;5033198;28;20531;-59
2022/02/03 09:57:34;;;;;;;2.42;2.03;;;;;;;;;;5026907;28;19916;-59
2022/02/03 10:02:15;;;;;;;4.18;2.20;;;;;;;;;;5025085;28;20018;-59
2022/02/03 10:05:32;;;;;;;3.42;2.85;;;;;;;;;;5034700;28;20025;-60
2022/02/03 10:07:33;;;;;;;3.38;2.60;;;;;;;;;;5035931;28;20037;-59
2022/02/03 10:10:07;;;;;;;2.55;2.17;;;;;;;;;;5034450;28;20021;-59
2022/02/03 10:12:41;;;;;;;4.45;2.80;;;;;;;;;;5036380;28;20077;-59
2022/02/03 10:15:09;;;;;;;3.33;2.47;;;;;;;;;;5044431;28;20047;-60
2022/02/03 10:17:41;;;;;;;2.78;2.10;;;;;;;;;;5027914;28;20029;-59
2022/02/03 10:20:11;;;;;;;4.43;2.58;;;;;;;;;;5033238;28;20021;-59
2022/02/03 10:22:46;;;;;;;3.08;2.47;;;;;;;;;;5027993;28;20025;-59
2022/02/03 10:25:14;;;;;;;3.38;2.45;;;;;;;;;;5025851;28;20194;-59
2022/02/03 10:27:46;;;;;;;2.40;2.20;;;;;;;;;;5034378;28;20065;-60
2022/02/03 10:30:25;;;;;;;2.90;2.13;;;;;;;;;;5036553;28;20040;-60
2022/02/03 10:32:52;;;;;;;3.10;2.38;;;;;;;;;;5035470;28;20028;-60
2022/02/03 10:41:20;;;;;;;2.70;2.30;;;;;;;;;;5031640;28;20441;-61
2022/02/03 10:49:21;;;;;;;3.35;2.67;;;;;;;;;;5033276;28;20025;-61
2022/02/03 11:03:06;;;;;;;2.58;2.28;;;;;;;;;;5035688;28;20274;-61
2022/02/03 11:08:23;;;;;;;3.05;2.42;;;;;;;;;;5037626;28;19913;-61
2022/02/03 11:10:58;;;;;;;6.70;3.67;;;;;;;;;;5035974;28;20033;-61
2022/02/03 11:13:32;;;;;;;3.13;2.30;;;;;;;;;;5029914;28;20040;-61
2022/02/03 11:16:05;;;;;;;3.83;2.90;;;;;;;;;;5031765;28;20100;-61
2022/02/03 11:18:32;;;;;;;4.32;2.70;;;;;;;;;;5027249;28;20301;-61
2022/02/03 11:20:59;;;;;;;5.70;2.50;;;;;;;;;;5030780;28;20476;-61
2022/02/03 11:47:33;;;;;;;3.75;2.30;;;;;;;;;;5030654;28;20035;-61
2022/02/03 11:55:58;;;;;;;;;;;;;;;;;;;;;
2022/02/03 12:18:34;;;;;;;3.05;2.53;;;;;;;;;;5027939;28;20121;-60
2022/02/03 12:21:09;;;;;;;2.97;2.20;;;;;;;;;;5033979;28;20029;-60
2022/02/03 12:24:08;;;;;;;2.78;2.20;;;;;;;;;;5030399;28;20100;-62
2022/02/03 12:26:44;;;;;;;4.57;2.33;;;;;;;;;;5027222;28;20025;-61
2022/02/03 12:29:18;;;;;;;2.53;2.00;;;;;;;;;;5033855;28;20047;-61
2022/02/03 12:40:24;;;;;;;2.53;1.80;;;;;;;;;;5027802;28;20021;-60
2022/02/03 12:43:01;;;;;;;2.85;2.00;;;;;;;;;;5033723;28;20040;-60
2022/02/03 12:45:27;;;;;;;3.85;2.67;;;;;;;;;;5029991;28;20075;-60
2022/02/03 12:48:04;;;;;;;3.90;2.17;;;;;;;;;;5032387;28;20395;-60
2022/02/03 12:50:32;;;;;;;2.53;1.95;;;;;;;;;;5032795;28;20526;-60
2022/02/03 12:52:59;;;;;;;3.17;1.90;;;;;;;;;;5030534;28;20045;-62
2022/02/03 12:55:32;;;;;;;2.33;1.80;;;;;;;;;;5031418;28;20026;-61
2022/02/03 12:58:05;;;;;;;2.20;1.80;;;;;;;;;;5030653;28;20028;-60
2022/02/03 13:00:40;;;;;;;2.78;2.10;;;;;;;;;;5027393;28;20094;-61
2022/02/03 13:03:09;;;;;;;2.97;1.80;;;;;;;;;;5024214;28;20098;-61
2022/02/03 13:05:36;;;;;;;3.25;1.80;;;;;;;;;;5029680;28;20033;-60
2022/02/03 13:08:05;;;;;;;2.70;2.25;;;;;;;;;;5034752;28;20406;-60
2022/02/03 13:10:34;;;;;;;3.15;2.13;;;;;;;;;;5026005;28;20033;-60
2022/02/03 13:13:42;;;;;;;2.65;1.88;;;;;;;;;;5027471;28;20091;-60
2022/02/03 13:16:11;;;;;;;2.53;1.90;;;;;;;;;;5026044;28;20048;-61
2022/02/03 13:18:45;;;;;;;2.70;1.98;;;;;;;;;;5028243;28;20040;-61
2022/02/03 13:21:36;;;;;;;2.22;1.88;;;;;;;;;;5032166;28;20488;-61
2022/02/03 13:24:31;;;;;;;2.85;1.80;;;;;;;;;;5031482;28;20504;-61
2022/02/03 13:26:55;;;;;;;2.25;1.77;;;;;;;;;;5027151;28;20150;-61
2022/02/03 13:29:33;;;;;;;6.00;3.22;;;;;;;;;;5034315;28;20434;-60
2022/02/03 13:32:10;;;;;;;2.08;1.88;;;;;;;;;;5029965;28;20063;-61
2022/02/03 13:34:50;;;;;;;2.10;1.83;;;;;;;;;;5031751;28;20105;-61
2022/02/03 13:37:28;;;;;;;3.13;1.73;;;;;;;;;;5024782;28;20103;-61
2022/02/03 13:40:15;;;;;;;4.22;2.05;;;;;;;;;;5034696;28;20026;-61
2022/02/03 13:42:47;;;;;;;2.00;1.30;;;;;;;;;;5030449;28;20083;-61
2022/02/03 13:45:14;;;;;;;3.55;1.65;;;;;;;;;;5037056;28;20118;-62
2022/02/03 13:47:41;;;;;;;2.53;2.00;;;;;;;;;;5035823;28;20037;-61
2022/02/03 13:50:11;;;;;;;2.22;1.70;;;;;;;;;;5038375;28;20025;-63
2022/02/03 14:22:09;;;;;;;2.55;1.70;;;;;;;;;;5030626;28;20057;-60
2022/02/03 14:27:22;;;;;;;5.82;2.60;;;;;;;;;;5029110;28;20519;-61
2022/02/03 14:29:55;;;;;;;5.32;2.28;;;;;;;;;;5031198;28;20033;-61
2022/02/03 14:32:29;;;;;;;7.32;2.60;;;;;;;;;;5029547;28;20503;-61
2022/02/03 14:34:56;;;;;;;5.90;2.17;;;;;;;;;;5035977;28;20404;-62
2022/02/03 14:42:48;;;;;;;2.40;1.77;;;;;;;;;;5029494;28;20051;-61
2022/02/03 14:45:15;;;;;;;3.10;1.95;;;;;;;;;;5022516;28;20026;-62
2022/02/03 14:47:41;;;;;;;3.00;1.55;;;;;;;;;;5033501;28;20036;-61
2022/02/03 14:50:11;;;;;;;4.32;1.88;;;;;;;;;;5034139;28;20017;-61
2022/02/03 15:00:49;;;;;;;5.03;2.60;;;;;;;;;;5032469;28;20064;-61
2022/02/03 15:03:15;;;;;;;4.65;2.40;;;;;;;;;;5036539;28;20481;-61
2022/02/03 15:05:42;;;;;;;5.32;2.30;;;;;;;;;;5034423;28;20059;-61
2022/02/03 15:08:19;;;;;;;7.50;2.40;;;;;;;;;;5027980;28;20021;-61
2022/02/03 15:10:51;;;;;;;4.90;2.65;;;;;;;;;;5026873;28;20464;-61
2022/02/03 15:16:03;;;;;;;6.53;3.50;;;;;;;;;;5024053;28;20055;-61
2022/02/03 15:18:28;;;;;;;10.52;4.45;;;;;;;;;;5033321;28;20068;-61
2022/02/03 15:20:55;;;;;;;15.15;4.85;;;;;;;;;;5031220;28;20056;-61
2022/02/03 15:23:20;;;;;;;26.65;6.55;;;;;;;;;;5031647;28;20033;-60
2022/02/03 15:25:46;;;;;;;16.95;5.55;;;;;;;;;;5031036;28;20083;-61
2022/02/03 15:28:11;;;;;;;25.25;6.35;;;;;;;;;;5030522;28;20408;-61
2022/02/03 15:30:37;;;;;;;18.50;6.88;;;;;;;;;;5029482;28;20036;-61
2022/02/03 15:33:03;;;;;;;12.93;4.90;;;;;;;;;;5033677;28;20032;-60
2022/02/03 15:37:59;;;;;;;38.05;8.25;;;;;;;;;;5034088;28;20025;-62
2022/02/03 15:40:27;;;;;;;14.45;4.63;;;;;;;;;;5030873;28;20610;-60
2022/02/03 15:43:01;;;;;;;10.77;2.97;;;;;;;;;;5037124;28;20036;-61
2022/02/03 15:45:34;;;;;;;19.70;5.53;;;;;;;;;;5032988;28;20041;-61
2022/02/03 15:48:04;;;;;;;7.13;2.70;;;;;;;;;;5033680;28;20082;-60
2022/02/03 15:51:01;;;;;;;3.13;1.90;;;;;;;;;;5034011;28;20086;-60
2022/02/03 16:17:26;;;;;;;26.40;11.45;;;;;;;;;;5031543;28;20034;-62
2022/02/03 16:20:03;;;;;;;14.45;6.40;;;;;;;;;;5031381;28;20025;-61
2022/02/03 16:22:42;;;;;;;21.92;7.95;;;;;;;;;;5030084;28;20519;-62
2022/02/03 16:54:44;;;;;;;75.18;29.45;;;;;;;;;;5031589;28;20515;-63
2022/02/03 16:57:16;;;;;;;31.10;13.50;;;;;;;;;;5020880;28;20025;-63
2022/02/03 17:00:07;;;;;;;51.35;23.13;;;;;;;;;;5018789;28;20152;-63
2022/02/03 17:02:27;;;;;;;36.60;16.77;;;;;;;;;;5022496;28;20045;-63
2022/02/03 17:04:56;;;;;;;53.60;25.35;;;;;;;;;;5022695;28;20029;-63
2022/02/03 17:07:23;;;;;;;14.75;8.70;;;;;;;;;;5021330;28;20141;-63
2022/02/03 17:09:49;;;;;;;35.30;19.75;;;;;;;;;;5020838;28;20032;-61
2022/02/03 17:12:16;;;;;;;19.60;11.10;;;;;;;;;;5021993;28;20037;-62
2022/02/03 17:14:42;;;;;;;16.40;9.85;;;;;;;;;;5023877;28;20400;-63
2022/02/03 17:17:07;;;;;;;11.45;7.22;;;;;;;;;;5031430;28;20025;-60
2022/02/03 17:19:32;;;;;;;9.82;6.15;;;;;;;;;;5023289;28;20111;-64
2022/02/03 17:21:58;;;;;;;10.13;5.70;;;;;;;;;;5024781;28;20520;-60
2022/02/03 17:24:24;;;;;;;12.52;6.07;;;;;;;;;;5020663;28;21133;-60
2022/02/03 17:29:23;;;;;;;8.38;4.72;;;;;;;;;;5020364;28;20493;-62
2022/02/03 17:32:07;;;;;;;5.80;3.83;;;;;;;;;;5029867;28;20087;-62
2022/02/03 18:25:45;;;;;;;21.75;8.32;;;;;;;;;;5030019;28;20412;-59
2022/02/03 18:31:09;;;;;;;10.93;5.40;;;;;;;;;;5032032;28;20633;-59
2022/02/03 18:50:04;;;;;;;10.20;5.85;;;;;;;;;;5036676;28;20059;-60
2022/02/03 19:24:28;;;;;;;9.90;5.90;;;;;;;;;;5028054;28;20389;-60
2022/02/03 19:56:12;;;;;;;10.02;5.10;;;;;;;;;;5034195;28;20056;-60
2022/02/03 20:04:32;;;;;;;;;;;;;;;;;;;;;
2022/02/03 20:11:49;;;;;;;13.15;8.35;;;;;;;;;;5027603;28;20424;-59
2022/02/03 20:14:14;;;;;;;11.65;7.00;;;;;;;;;;5033579;28;20030;-59
2022/02/03 20:16:41;;;;;;;13.00;7.22;;;;;;;;;;5030706;28;20041;-60
2022/02/03 20:19:07;;;;;;;12.07;7.47;;;;;;;;;;5030782;28;20029;-60
2022/02/03 20:21:35;;;;;;;14.95;8.10;;;;;;;;;;5029684;28;20087;-59
2022/02/03 20:24:02;;;;;;;16.20;9.25;;;;;;;;;;5030160;28;20047;-60
2022/02/03 20:26:28;;;;;;;14.50;8.13;;;;;;;;;;5030433;28;20065;-60
2022/02/03 20:28:53;;;;;;;16.40;8.82;;;;;;;;;;5032185;28;20052;-60
2022/02/03 20:31:19;;;;;;;15.68;10.07;;;;;;;;;;5029324;28;20029;-59
2022/02/03 20:33:44;;;;;;;17.67;9.90;;;;;;;;;;5034129;28;20099;-60
2022/02/03 20:36:10;;;;;;;12.15;8.88;;;;;;;;;;5027094;28;20124;-60
2022/02/03 20:38:36;;;;;;;14.15;8.85;;;;;;;;;;5023305;28;20083;-60
2022/02/03 20:41:02;;;;;;;21.95;11.75;;;;;;;;;;5028237;28;20441;-59
2022/02/03 20:43:28;;;;;;;26.58;13.73;;;;;;;;;;5028313;28;20035;-60
2022/02/03 20:45:53;;;;;;;26.25;12.48;;;;;;;;;;5029664;28;20033;-60
2022/02/03 20:48:19;;;;;;;16.38;9.52;;;;;;;;;;5025535;28;20032;-60
2022/02/03 20:50:46;;;;;;;19.90;10.15;;;;;;;;;;5028421;28;20079;-60
2022/02/03 20:53:13;;;;;;;24.77;10.82;;;;;;;;;;5026550;28;20031;-59
2022/02/03 20:55:42;;;;;;;30.15;13.95;;;;;;;;;;5031240;28;20017;-60
2022/02/03 20:58:11;;;;;;;24.15;11.68;;;;;;;;;;5031924;28;20029;-59
2022/02/03 21:00:43;;;;;;;18.27;9.63;;;;;;;;;;5033249;28;20737;-60
2022/02/03 21:03:24;;;;;;;19.40;10.40;;;;;;;;;;5027713;28;20021;-59
2022/02/03 21:05:49;;;;;;;19.40;9.70;;;;;;;;;;5024163;28;20029;-59
2022/02/03 21:08:20;;;;;;;23.65;11.02;;;;;;;;;;5032098;28;20028;-59
2022/02/03 21:10:46;;;;;;;21.48;10.00;;;;;;;;;;5025787;28;20044;-60
2022/02/03 21:13:11;;;;;;;16.73;8.73;;;;;;;;;;5032049;28;20041;-59
2022/02/03 21:15:39;;;;;;;14.40;7.78;;;;;;;;;;5028467;28;20522;-60
2022/02/03 21:18:09;;;;;;;15.18;8.20;;;;;;;;;;5029234;28;20116;-60
2022/02/03 21:20:36;;;;;;;18.75;9.07;;;;;;;;;;5028804;28;20543;-60
2022/02/03 21:23:03;;;;;;;16.38;9.07;;;;;;;;;;5029477;28;20075;-60
2022/02/03 21:25:37;;;;;;;18.02;8.50;;;;;;;;;;5034318;28;20499;-60
2022/02/03 21:28:12;;;;;;;17.02;8.75;;;;;;;;;;5024317;28;20057;-60
2022/02/03 21:30:38;;;;;;;18.52;9.82;;;;;;;;;;5025928;28;20040;-60
2022/02/03 21:33:08;;;;;;;14.02;7.65;;;;;;;;;;5029865;28;20041;-60
2022/02/03 21:35:33;;;;;;;13.82;8.55;;;;;;;;;;5031615;28;20025;-58
2022/02/03 21:38:00;;;;;;;15.48;9.38;;;;;;;;;;5028493;28;20029;-60
2022/02/03 21:40:26;;;;;;;19.73;10.45;;;;;;;;;;5033392;28;20021;-60
2022/02/03 21:42:51;;;;;;;28.20;12.45;;;;;;;;;;5031582;28;20377;-59
2022/02/03 21:45:22;;;;;;;59.53;19.50;;;;;;;;;;5031422;28;20026;-60
2022/02/03 21:47:47;;;;;;;31.08;12.88;;;;;;;;;;5031019;28;20357;-59
2022/02/03 21:50:13;;;;;;;29.08;11.75;;;;;;;;;;5028504;28;20028;-59
2022/02/03 21:52:46;;;;;;;17.55;9.10;;;;;;;;;;5029240;28;20048;-59
2022/02/03 21:55:11;;;;;;;19.27;9.25;;;;;;;;;;5026679;28;20064;-59
2022/02/03 21:57:43;;;;;;;21.17;9.57;;;;;;;;;;5026028;28;20072;-59
2022/02/03 22:00:11;;;;;;;18.75;9.73;;;;;;;;;;5028628;28;20563;-59
2022/02/03 22:02:36;;;;;;;21.13;9.95;;;;;;;;;;5029857;28;20045;-59
2022/02/03 22:05:03;;;;;;;18.52;8.48;;;;;;;;;;5031619;28;20342;-59
2022/02/03 22:07:28;;;;;;;18.23;7.82;;;;;;;;;;5030464;28;20052;-60
2022/02/03 22:09:54;;;;;;;13.07;6.95;;;;;;;;;;5028833;28;20037;-60
2022/02/03 22:12:19;;;;;;;11.00;6.47;;;;;;;;;;5030104;28;20457;-60
2022/02/03 22:14:45;;;;;;;12.30;6.70;;;;;;;;;;5032086;28;20029;-60
2022/02/03 22:17:11;;;;;;;12.25;6.53;;;;;;;;;;5029506;28;20025;-60
2022/02/03 22:19:42;;;;;;;13.85;7.53;;;;;;;;;;5031681;28;20395;-59
2022/02/03 22:22:22;;;;;;;;;;;;;;;;;;;;;
2022/02/03 22:45:56;;;;;;;19.25;9.73;;;;;;;;;;5032523;28;20094;-60
2022/02/03 22:48:26;;;;;;;;;;;;;;;;;;;;;
2022/02/03 22:50:51;;;;;;;21.35;10.60;;;;;;;;;;5029840;28;20120;-60
2022/02/03 22:53:18;;;;;;;19.10;10.77;;;;;;;;;;5033073;28;20049;-60
2022/02/03 22:55:44;;;;;;;22.23;11.90;;;;;;;;;;5037437;28;20040;-60
2022/02/03 23:01:00;;;;;;;20.30;10.20;;;;;;;;;;5029054;28;20073;-59
2022/02/03 23:03:27;;;;;;;19.23;9.85;;;;;;;;;;5025093;28;20037;-59
2022/02/03 23:05:53;;;;;;;18.23;9.23;;;;;;;;;;5030470;28;20484;-59
2022/02/03 23:08:23;;;;;;;21.50;9.48;;;;;;;;;;5031035;28;20029;-60
2022/02/03 23:11:06;;;;;;;24.15;10.45;;;;;;;;;;5026642;28;20021;-60
2022/02/03 23:16:20;;;;;;;37.05;13.98;;;;;;;;;;5028019;28;20237;-59
2022/02/03 23:23:37;;;;;;;16.52;9.05;;;;;;;;;;5029900;28;20108;-59
2022/02/03 23:26:05;;;;;;;21.23;9.43;;;;;;;;;;5033142;28;20025;-60
2022/02/03 23:28:33;;;;;;;18.63;9.20;;;;;;;;;;5034150;28;20030;-59
2022/02/03 23:30:58;;;;;;;19.83;8.90;;;;;;;;;;5038809;28;20091;-59
2022/02/03 23:33:24;;;;;;;18.67;8.68;;;;;;;;;;5029872;28;20025;-59
2022/02/03 23:35:50;;;;;;;17.10;9.05;;;;;;;;;;5032612;28;20108;-59
